KEZM

Heart of Georgia Regional Airport

Eastman, Georgia, USA
METAR KEZM 180255Z AUTO 21004KT 10SM CLR 19/11 A3018 RMK AO2 T01910111
Observed Flight Rules
Dec-18 @ 02:55 UTC (26 minutes ago) Visual Flight Rules
Wind Visibility Clouds
210° at 4 knots 10 miles
  • Clear skies
Temperatures Readings
Current 19°C / 66°F
Dewpoint 11°C / 52°F
Humidity 60%
Altimeter 30.18" Hg
Pressure 1022 hPa
Elevation 93
METAR KEZM 180255Z AUTO 21004KT 10SM CLR 19/11 A3018 RMK AO2 T01910111
Observed Flight Rules
Dec-18 @ 02:55 UTC
(26 minutes ago)
VFR
Wind Visibility
210° at 4 knots 10 miles
Clouds
  • Clear skies
Temperature Dewpoint
19°C / 66°F 11°C / 52°F
Humidity Altimeter Pressure
60% 30.18" Hg 1022 hPa